Terminal Aerodrome Forecast
Issued by NWS

Home | Current Version | Previous Version | Text Only | Print | Product List | Glossary On
Versions: 1 2 3 4 5 6 7 8 9 10 11 12 13 14 15 16 17 18 19 20
000
FTUS43 KJKL 270500
TAFSME
TAF
KSME 270540Z 2706/2806 27003KT P6SM VCSH BKN025
      TEMPO 2706/2708 5SM -SHSN BKN015
     FM271100 01004KT P6SM BKN025
     FM271800 34005KT P6SM BKN035=

USA.gov is the U.S. government's official web portal to all federal, state and local government web resources and services.